sensor_id;sensor_type;location;lat;lon;timestamp;pressure;altitude;pressure_sealevel;temperature;humidity
59757;BME280;45631;51.962;5.974;2022-10-10T00:01:15;101389.81;;;6.96;100.00
59757;BME280;45631;51.962;5.974;2022-10-10T00:03:44;101394.13;;;6.97;100.00
59757;BME280;45631;51.962;5.974;2022-10-10T00:06:13;101387.78;;;7.03;100.00
59757;BME280;45631;51.962;5.974;2022-10-10T00:08:42;101384.38;;;7.01;100.00
59757;BME280;45631;51.962;5.974;2022-10-10T00:11:11;101384.28;;;7.04;100.00
59757;BME280;45631;51.962;5.974;2022-10-10T00:13:41;101385.78;;;7.09;100.00
59757;BME280;45631;51.962;5.974;2022-10-10T00:16:10;101378.78;;;7.10;100.00
59757;BME280;45631;51.962;5.974;2022-10-10T00:18:40;101384.13;;;7.07;100.00
59757;BME280;45631;51.962;5.974;2022-10-10T00:21:09;101379.03;;;7.04;100.00
59757;BME280;45631;51.962;5.974;2022-10-10T00:23:37;101382.44;;;7.06;100.00
59757;BME280;45631;51.962;5.974;2022-10-10T00:26:05;101374.66;;;7.04;100.00
59757;BME280;45631;51.962;5.974;2022-10-10T00:28:35;101383.47;;;7.02;100.00
59757;BME280;45631;51.962;5.974;2022-10-10T00:31:08;101374.78;;;7.01;100.00
59757;BME280;45631;51.962;5.974;2022-10-10T00:33:36;101381.84;;;6.99;100.00
59757;BME280;45631;51.962;5.974;2022-10-10T00:36:06;101382.25;;;6.90;100.00
59757;BME280;45631;51.962;5.974;2022-10-10T00:38:34;101376.59;;;6.99;100.00
59757;BME280;45631;51.962;5.974;2022-10-10T00:41:03;101372.25;;;7.00;100.00
59757;BME280;45631;51.962;5.974;2022-10-10T00:43:32;101374.19;;;6.94;100.00
59757;BME280;45631;51.962;5.974;2022-10-10T00:46:01;101362.22;;;6.89;100.00
59757;BME280;45631;51.962;5.974;2022-10-10T00:48:31;101361.25;;;6.91;100.00
59757;BME280;45631;51.962;5.974;2022-10-10T00:51:03;101361.19;;;6.93;100.00
59757;BME280;45631;51.962;5.974;2022-10-10T00:53:35;101363.00;;;6.91;100.00
59757;BME280;45631;51.962;5.974;2022-10-10T00:56:04;101356.34;;;6.84;100.00
59757;BME280;45631;51.962;5.974;2022-10-10T00:58:34;101353.91;;;6.79;100.00
59757;BME280;45631;51.962;5.974;2022-10-10T01:01:03;101354.03;;;6.76;100.00
59757;BME280;45631;51.962;5.974;2022-10-10T01:03:31;101350.63;;;6.74;100.00
59757;BME280;45631;51.962;5.974;2022-10-10T01:05:59;101349.53;;;6.80;100.00
59757;BME280;45631;51.962;5.974;2022-10-10T01:08:27;101341.88;;;6.75;100.00
59757;BME280;45631;51.962;5.974;2022-10-10T01:11:11;101347.94;;;6.75;100.00
59757;BME280;45631;51.962;5.974;2022-10-10T01:13:50;101342.59;;;6.79;100.00
59757;BME280;45631;51.962;5.974;2022-10-10T01:16:24;101351.00;;;6.65;100.00
59757;BME280;45631;51.962;5.974;2022-10-10T01:19:01;101349.91;;;6.70;100.00
59757;BME280;45631;51.962;5.974;2022-10-10T01:21:39;101349.34;;;6.62;100.00
59757;BME280;45631;51.962;5.974;2022-10-10T01:24:30;101349.44;;;6.60;100.00
59757;BME280;45631;51.962;5.974;2022-10-10T01:27:17;101344.00;;;6.65;100.00
59757;BME280;45631;51.962;5.974;2022-10-10T01:29:57;101340.91;;;6.55;100.00
59757;BME280;45631;51.962;5.974;2022-10-10T01:32:32;101345.97;;;6.60;100.00
59757;BME280;45631;51.962;5.974;2022-10-10T01:35:27;101340.13;;;6.53;100.00
59757;BME280;45631;51.962;5.974;2022-10-10T01:38:05;101335.09;;;6.49;100.00
59757;BME280;45631;51.962;5.974;2022-10-10T01:40:41;101327.06;;;6.53;100.00
59757;BME280;45631;51.962;5.974;2022-10-10T01:43:15;101329.25;;;6.42;100.00
59757;BME280;45631;51.962;5.974;2022-10-10T01:45:47;101331.22;;;6.37;100.00
59757;BME280;45631;51.962;5.974;2022-10-10T01:48:18;101325.03;;;6.39;100.00
59757;BME280;45631;51.962;5.974;2022-10-10T01:50:58;101332.00;;;6.39;100.00
59757;BME280;45631;51.962;5.974;2022-10-10T01:53:41;101327.66;;;6.38;100.00
59757;BME280;45631;51.962;5.974;2022-10-10T01:56:17;101317.19;;;6.39;100.00
59757;BME280;45631;51.962;5.974;2022-10-10T01:59:05;101316.84;;;6.47;100.00
59757;BME280;45631;51.962;5.974;2022-10-10T02:01:43;101312.00;;;6.38;100.00
59757;BME280;45631;51.962;5.974;2022-10-10T02:04:30;101312.25;;;6.32;100.00
59757;BME280;45631;51.962;5.974;2022-10-10T02:07:02;101307.94;;;6.31;100.00
59757;BME280;45631;51.962;5.974;2022-10-10T02:09:35;101300.09;;;6.31;100.00
59757;BME280;45631;51.962;5.974;2022-10-10T02:12:05;101297.25;;;6.37;100.00
59757;BME280;45631;51.962;5.974;2022-10-10T02:14:37;101291.50;;;6.29;100.00
59757;BME280;45631;51.962;5.974;2022-10-10T02:17:12;101284.56;;;6.28;100.00
59757;BME280;45631;51.962;5.974;2022-10-10T02:19:42;101286.50;;;6.22;100.00
59757;BME280;45631;51.962;5.974;2022-10-10T02:22:12;101280.09;;;6.30;100.00
59757;BME280;45631;51.962;5.974;2022-10-10T02:24:41;101288.91;;;6.27;100.00
59757;BME280;45631;51.962;5.974;2022-10-10T02:27:14;101285.41;;;6.28;100.00
59757;BME280;45631;51.962;5.974;2022-10-10T02:29:46;101278.72;;;6.21;100.00
59757;BME280;45631;51.962;5.974;2022-10-10T02:32:20;101285.66;;;6.22;100.00
59757;BME280;45631;51.962;5.974;2022-10-10T02:34:52;101280.66;;;6.16;100.00
59757;BME280;45631;51.962;5.974;2022-10-10T02:37:23;101279.00;;;6.13;100.00
59757;BME280;45631;51.962;5.974;2022-10-10T02:39:55;101280.44;;;6.22;100.00
59757;BME280;45631;51.962;5.974;2022-10-10T02:42:26;101269.38;;;6.15;100.00
59757;BME280;45631;51.962;5.974;2022-10-10T02:44:55;101267.53;;;6.17;100.00
59757;BME280;45631;51.962;5.974;2022-10-10T02:47:25;101269.38;;;6.15;100.00
59757;BME280;45631;51.962;5.974;2022-10-10T02:49:53;101268.47;;;6.16;100.00
59757;BME280;45631;51.962;5.974;2022-10-10T02:52:21;101265.13;;;6.13;100.00
59757;BME280;45631;51.962;5.974;2022-10-10T02:54:52;101268.75;;;6.08;100.00
59757;BME280;45631;51.962;5.974;2022-10-10T02:57:20;101264.50;;;6.06;100.00
59757;BME280;45631;51.962;5.974;2022-10-10T02:59:48;101253.25;;;6.04;100.00
59757;BME280;45631;51.962;5.974;2022-10-10T03:02:16;101255.88;;;6.04;100.00
59757;BME280;45631;51.962;5.974;2022-10-10T03:04:46;101261.97;;;6.04;100.00
59757;BME280;45631;51.962;5.974;2022-10-10T03:07:14;101259.16;;;6.09;100.00
59757;BME280;45631;51.962;5.974;2022-10-10T03:09:42;101253.56;;;6.18;100.00
59757;BME280;45631;51.962;5.974;2022-10-10T03:12:10;101259.41;;;6.03;100.00
59757;BME280;45631;51.962;5.974;2022-10-10T03:14:38;101258.75;;;5.98;100.00
59757;BME280;45631;51.962;5.974;2022-10-10T03:17:06;101256.91;;;6.00;100.00
59757;BME280;45631;51.962;5.974;2022-10-10T03:19:34;101252.63;;;5.99;100.00
59757;BME280;45631;51.962;5.974;2022-10-10T03:22:04;101255.88;;;6.04;100.00
59757;BME280;45631;51.962;5.974;2022-10-10T03:24:32;101249.06;;;6.00;100.00
59757;BME280;45631;51.962;5.974;2022-10-10T03:27:00;101250.66;;;6.04;100.00
59757;BME280;45631;51.962;5.974;2022-10-10T03:29:28;101249.06;;;6.00;100.00
59757;BME280;45631;51.962;5.974;2022-10-10T03:31:58;101246.75;;;5.92;100.00
59757;BME280;45631;51.962;5.974;2022-10-10T03:34:27;101243.81;;;6.01;100.00
59757;BME280;45631;51.962;5.974;2022-10-10T03:36:55;101245.63;;;5.99;100.00
59757;BME280;45631;51.962;5.974;2022-10-10T03:39:24;101247.13;;;6.05;100.00
59757;BME280;45631;51.962;5.974;2022-10-10T03:41:52;101242.44;;;5.91;100.00
59757;BME280;45631;51.962;5.974;2022-10-10T03:44:21;101246.91;;;5.87;100.00
59757;BME280;45631;51.962;5.974;2022-10-10T03:46:49;101248.63;;;5.88;100.00
59757;BME280;45631;51.962;5.974;2022-10-10T03:49:17;101244.56;;;5.81;100.00
59757;BME280;45631;51.962;5.974;2022-10-10T03:51:45;101234.34;;;5.75;100.00
59757;BME280;45631;51.962;5.974;2022-10-10T03:54:14;101244.69;;;5.78;100.00
59757;BME280;45631;51.962;5.974;2022-10-10T03:56:43;101241.31;;;5.74;100.00
59757;BME280;45631;51.962;5.974;2022-10-10T03:59:12;101243.19;;;5.71;100.00
59757;BME280;45631;51.962;5.974;2022-10-10T04:01:40;101236.94;;;5.75;100.00
59757;BME280;45631;51.962;5.974;2022-10-10T04:04:08;101234.25;;;5.78;100.00
59757;BME280;45631;51.962;5.974;2022-10-10T04:06:36;101244.69;;;5.78;100.00
59757;BME280;45631;51.962;5.974;2022-10-10T04:09:04;101236.88;;;5.76;100.00
59757;BME280;45631;51.962;5.974;2022-10-10T04:11:33;101231.97;;;5.69;100.00
59757;BME280;45631;51.962;5.974;2022-10-10T04:14:04;101228.56;;;5.67;100.00
59757;BME280;45631;51.962;5.974;2022-10-10T04:16:32;101232.13;;;5.64;100.00
59757;BME280;45631;51.962;5.974;2022-10-10T04:19:00;101237.47;;;5.61;100.00
59757;BME280;45631;51.962;5.974;2022-10-10T04:21:29;101229.59;;;5.63;100.00
59757;BME280;45631;51.962;5.974;2022-10-10T04:23:57;101240.16;;;5.59;100.00
59757;BME280;45631;51.962;5.974;2022-10-10T04:26:25;101233.34;;;5.55;100.00
59757;BME280;45631;51.962;5.974;2022-10-10T04:28:56;101231.88;;;5.48;100.00
59757;BME280;45631;51.962;5.974;2022-10-10T04:31:26;101237.19;;;5.45;100.00
59757;BME280;45631;51.962;5.974;2022-10-10T04:33:54;101233.69;;;5.46;100.00
59757;BME280;45631;51.962;5.974;2022-10-10T04:36:22;101230.06;;;5.50;100.00
59757;BME280;45631;51.962;5.974;2022-10-10T04:38:51;101243.09;;;5.50;100.00
59757;BME280;45631;51.962;5.974;2022-10-10T04:41:19;101234.44;;;5.50;100.00
59757;BME280;45631;51.962;5.974;2022-10-10T04:43:47;101229.31;;;5.47;100.00
59757;BME280;45631;51.962;5.974;2022-10-10T04:46:15;101230.47;;;5.39;100.00
59757;BME280;45631;51.962;5.974;2022-10-10T04:48:45;101234.03;;;5.37;100.00
59757;BME280;45631;51.962;5.974;2022-10-10T04:51:14;101232.03;;;5.44;100.00
59757;BME280;45631;51.962;5.974;2022-10-10T04:53:42;101231.34;;;5.38;100.00
59757;BME280;45631;51.962;5.974;2022-10-10T04:56:18;101234.78;;;5.40;100.00
59757;BME280;45631;51.962;5.974;2022-10-10T04:58:46;101234.97;;;5.36;100.00
59757;BME280;45631;51.962;5.974;2022-10-10T05:01:14;101233.00;;;5.41;100.00
59757;BME280;45631;51.962;5.974;2022-10-10T05:03:42;101234.72;;;5.42;100.00
59757;BME280;45631;51.962;5.974;2022-10-10T05:06:12;101234.78;;;5.40;100.00
59757;BME280;45631;51.962;5.974;2022-10-10T05:08:40;101225.09;;;5.44;100.00
59757;BME280;45631;51.962;5.974;2022-10-10T05:11:08;101230.13;;;5.49;100.00
59757;BME280;45631;51.962;5.974;2022-10-10T05:13:36;101227.69;;;5.44;100.00
59757;BME280;45631;51.962;5.974;2022-10-10T05:16:05;101227.91;;;5.38;100.00
59757;BME280;45631;51.962;5.974;2022-10-10T05:18:33;101226.56;;;5.28;100.00
59757;BME280;45631;51.962;5.974;2022-10-10T05:21:04;101225.06;;;5.20;100.00
59757;BME280;45631;51.962;5.974;2022-10-10T05:23:35;101214.44;;;5.27;100.00
59757;BME280;45631;51.962;5.974;2022-10-10T05:26:04;101221.69;;;5.18;100.00
59757;BME280;45631;51.962;5.974;2022-10-10T05:28:32;101218.06;;;5.22;100.00
59757;BME280;45631;51.962;5.974;2022-10-10T05:31:01;101214.44;;;5.27;100.00
59757;BME280;45631;51.962;5.974;2022-10-10T05:33:29;101226.09;;;5.16;100.00
59757;BME280;45631;51.962;5.974;2022-10-10T05:36:02;101223.34;;;5.19;100.00
59757;BME280;45631;51.962;5.974;2022-10-10T05:38:31;101226.97;;;5.17;100.00
59757;BME280;45631;51.962;5.974;2022-10-10T05:41:00;101227.91;;;5.14;100.00
59757;BME280;45631;51.962;5.974;2022-10-10T05:43:29;101228.00;;;5.11;100.00
59757;BME280;45631;51.962;5.974;2022-10-10T05:45:57;101229.59;;;5.15;100.00
59757;BME280;45631;51.962;5.974;2022-10-10T05:48:25;101228.88;;;5.12;100.00
59757;BME280;45631;51.962;5.974;2022-10-10T05:50:55;101223.47;;;5.16;100.00
59757;BME280;45631;51.962;5.974;2022-10-10T05:53:25;101226.31;;;5.10;100.00
59757;BME280;45631;51.962;5.974;2022-10-10T05:55:53;101229.94;;;5.06;100.00
59757;BME280;45631;51.962;5.974;2022-10-10T05:58:24;101227.16;;;5.11;100.00
59757;BME280;45631;51.962;5.974;2022-10-10T06:00:53;101230.63;;;5.11;100.00
59757;BME280;45631;51.962;5.974;2022-10-10T06:03:21;101234.22;;;5.08;100.00
59757;BME280;45631;51.962;5.974;2022-10-10T06:05:50;101230.63;;;5.11;100.00
59757;BME280;45631;51.962;5.974;2022-10-10T06:08:18;101231.53;;;5.10;100.00
59757;BME280;45631;51.962;5.974;2022-10-10T06:10:47;101229.00;;;5.08;100.00
59757;BME280;45631;51.962;5.974;2022-10-10T06:13:17;101219.47;;;5.07;100.00
59757;BME280;45631;51.962;5.974;2022-10-10T06:15:51;101229.97;;;5.04;100.00
59757;BME280;45631;51.962;5.974;2022-10-10T06:18:20;101229.03;;;5.07;100.00
59757;BME280;45631;51.962;5.974;2022-10-10T06:20:50;101224.56;;;5.11;100.00
59757;BME280;45631;51.962;5.974;2022-10-10T06:23:18;101225.88;;;5.22;100.00
59757;BME280;45631;51.962;5.974;2022-10-10T06:25:47;101231.53;;;5.10;100.00
59757;BME280;45631;51.962;5.974;2022-10-10T06:28:18;101228.56;;;5.19;100.00
59757;BME280;45631;51.962;5.974;2022-10-10T06:30:46;101233.00;;;5.17;100.00
59757;BME280;45631;51.962;5.974;2022-10-10T06:33:17;101232.19;;;5.15;100.00
59757;BME280;45631;51.962;5.974;2022-10-10T06:35:47;101230.22;;;5.22;100.00
59757;BME280;45631;51.962;5.974;2022-10-10T06:38:16;101241.28;;;5.29;100.00
59757;BME280;45631;51.962;5.974;2022-10-10T06:40:44;101238.69;;;5.29;100.00
59757;BME280;45631;51.962;5.974;2022-10-10T06:43:14;101238.59;;;5.32;100.00
59757;BME280;45631;51.962;5.974;2022-10-10T06:45:44;101246.84;;;5.43;100.00
59757;BME280;45631;51.962;5.974;2022-10-10T06:48:13;101251.25;;;5.41;100.00
59757;BME280;45631;51.962;5.974;2022-10-10T06:50:54;101249.59;;;5.40;100.00
59757;BME280;45631;51.962;5.974;2022-10-10T06:53:22;101249.28;;;5.48;100.00
59757;BME280;45631;51.962;5.974;2022-10-10T06:55:52;101248.25;;;5.52;100.00
59757;BME280;45631;51.962;5.974;2022-10-10T06:58:20;101244.16;;;5.68;100.00
59757;BME280;45631;51.962;5.974;2022-10-10T07:00:50;101247.59;;;5.92;100.00
59757;BME280;45631;51.962;5.974;2022-10-10T07:03:19;101246.78;;;6.14;100.00
59757;BME280;45631;51.962;5.974;2022-10-10T07:05:51;101243.03;;;6.42;100.00
59757;BME280;45631;51.962;5.974;2022-10-10T07:08:20;101238.47;;;6.68;100.00
59757;BME280;45631;51.962;5.974;2022-10-10T07:10:48;101244.75;;;6.84;100.00
59757;BME280;45631;51.962;5.974;2022-10-10T07:13:18;101244.59;;;7.08;100.00
59757;BME280;45631;51.962;5.974;2022-10-10T07:15:46;101250.88;;;7.43;100.00
59757;BME280;45631;51.962;5.974;2022-10-10T07:18:16;101241.63;;;7.74;100.00
59757;BME280;45631;51.962;5.974;2022-10-10T07:20:44;101245.81;;;7.96;100.00
59757;BME280;45631;51.962;5.974;2022-10-10T07:23:13;101252.34;;;8.24;100.00
59757;BME280;45631;51.962;5.974;2022-10-10T07:25:42;101240.13;;;8.42;100.00
59757;BME280;45631;51.962;5.974;2022-10-10T07:28:10;101244.94;;;8.86;100.00
59757;BME280;45631;51.962;5.974;2022-10-10T07:30:39;101244.81;;;9.05;100.00
59757;BME280;45631;51.962;5.974;2022-10-10T07:33:09;101249.66;;;9.13;100.00
59757;BME280;45631;51.962;5.974;2022-10-10T07:35:37;101253.88;;;9.49;100.00
59757;BME280;45631;51.962;5.974;2022-10-10T07:38:08;101256.06;;;9.57;100.00
59757;BME280;45631;51.962;5.974;2022-10-10T07:40:41;101259.75;;;9.86;100.00
59757;BME280;45631;51.962;5.974;2022-10-10T07:43:09;101263.53;;;9.96;100.00
59757;BME280;45631;51.962;5.974;2022-10-10T07:45:40;101264.09;;;10.34;100.00
59757;BME280;45631;51.962;5.974;2022-10-10T07:48:08;101265.75;;;10.36;100.00
59757;BME280;45631;51.962;5.974;2022-10-10T07:50:39;101271.97;;;10.49;100.00
59757;BME280;45631;51.962;5.974;2022-10-10T07:53:07;101269.28;;;10.65;100.00
59757;BME280;45631;51.962;5.974;2022-10-10T07:55:37;101269.97;;;10.83;100.00
59757;BME280;45631;51.962;5.974;2022-10-10T07:58:08;101271.53;;;11.02;100.00
59757;BME280;45631;51.962;5.974;2022-10-10T08:00:37;101274.72;;;11.36;100.00
59757;BME280;45631;51.962;5.974;2022-10-10T08:03:07;101275.75;;;11.62;100.00
59757;BME280;45631;51.962;5.974;2022-10-10T08:05:43;101272.88;;;11.80;100.00
59757;BME280;45631;51.962;5.974;2022-10-10T08:08:14;101274.69;;;12.21;100.00
59757;BME280;45631;51.962;5.974;2022-10-10T08:10:42;101271.44;;;12.30;100.00
59757;BME280;45631;51.962;5.974;2022-10-10T08:13:11;101275.00;;;12.57;100.00
59757;BME280;45631;51.962;5.974;2022-10-10T08:15:40;101271.13;;;12.88;100.00
59757;BME280;45631;51.962;5.974;2022-10-10T08:18:08;101269.34;;;13.14;100.00
59757;BME280;45631;51.962;5.974;2022-10-10T08:20:36;101275.03;;;13.47;100.00
59757;BME280;45631;51.962;5.974;2022-10-10T08:23:04;101270.94;;;13.43;100.00
59757;BME280;45631;51.962;5.974;2022-10-10T08:25:32;101280.78;;;13.41;100.00
59757;BME280;45631;51.962;5.974;2022-10-10T08:28:00;101277.78;;;13.45;100.00
59757;BME280;45631;51.962;5.974;2022-10-10T08:30:30;101279.69;;;13.30;100.00
59757;BME280;45631;51.962;5.974;2022-10-10T08:32:58;101278.72;;;13.31;100.00
59757;BME280;45631;51.962;5.974;2022-10-10T08:35:27;101275.69;;;13.12;100.00
59757;BME280;45631;51.962;5.974;2022-10-10T08:37:55;101276.66;;;12.98;100.00
59757;BME280;45631;51.962;5.974;2022-10-10T08:40:23;101276.94;;;12.93;100.00
59757;BME280;45631;51.962;5.974;2022-10-10T08:42:56;101270.19;;;12.89;100.00
59757;BME280;45631;51.962;5.974;2022-10-10T08:45:31;101276.41;;;12.88;100.00
59757;BME280;45631;51.962;5.974;2022-10-10T08:48:02;101273.97;;;12.85;100.00
59757;BME280;45631;51.962;5.974;2022-10-10T08:50:35;101271.25;;;12.99;100.00
59757;BME280;45631;51.962;5.974;2022-10-10T08:53:07;101277.78;;;13.19;100.00
59757;BME280;45631;51.962;5.974;2022-10-10T08:55:40;101280.34;;;13.21;100.00
59757;BME280;45631;51.962;5.974;2022-10-10T08:58:15;101276.31;;;13.41;100.00
59757;BME280;45631;51.962;5.974;2022-10-10T09:00:50;101280.88;;;13.39;100.00
59757;BME280;45631;51.962;5.974;2022-10-10T09:03:25;101282.88;;;13.35;100.00
59757;BME280;45631;51.962;5.974;2022-10-10T09:06:06;101282.03;;;13.35;100.00
59757;BME280;45631;51.962;5.974;2022-10-10T09:08:51;101280.31;;;13.47;100.00
59757;BME280;45631;51.962;5.974;2022-10-10T09:11:29;101283.81;;;13.47;100.00
59757;BME280;45631;51.962;5.974;2022-10-10T09:14:06;101283.47;;;13.65;100.00
59757;BME280;45631;51.962;5.974;2022-10-10T09:16:44;101276.91;;;13.71;100.00
59757;BME280;45631;51.962;5.974;2022-10-10T09:19:28;101293.28;;;13.76;100.00
59757;BME280;45631;51.962;5.974;2022-10-10T09:22:00;101289.75;;;13.88;100.00
59757;BME280;45631;51.962;5.974;2022-10-10T09:24:32;101295.81;;;14.01;100.00
59757;BME280;45631;51.962;5.974;2022-10-10T09:27:11;101294.97;;;14.14;100.00
59757;BME280;45631;51.962;5.974;2022-10-10T09:29:43;101298.06;;;14.32;100.00
59757;BME280;45631;51.962;5.974;2022-10-10T09:32:17;101295.56;;;14.42;100.00
59757;BME280;45631;51.962;5.974;2022-10-10T09:34:49;101291.50;;;14.49;100.00
59757;BME280;45631;51.962;5.974;2022-10-10T09:37:20;101298.13;;;14.54;100.00
59757;BME280;45631;51.962;5.974;2022-10-10T09:40:14;101303.16;;;14.70;100.00
59757;BME280;45631;51.962;5.974;2022-10-10T09:42:44;101308.81;;;14.66;100.00
59757;BME280;45631;51.962;5.974;2022-10-10T09:45:17;101300.53;;;14.82;100.00
59757;BME280;45631;51.962;5.974;2022-10-10T09:47:51;101296.34;;;14.91;100.00
59757;BME280;45631;51.962;5.974;2022-10-10T09:50:20;101303.00;;;15.08;100.00
59757;BME280;45631;51.962;5.974;2022-10-10T09:52:49;101300.59;;;15.16;100.00
59757;BME280;45631;51.962;5.974;2022-10-10T09:55:24;101299.06;;;15.25;100.00
59757;BME280;45631;51.962;5.974;2022-10-10T09:57:55;101309.78;;;15.34;100.00
59757;BME280;45631;51.962;5.974;2022-10-10T10:00:32;101309.53;;;15.60;100.00
59757;BME280;45631;51.962;5.974;2022-10-10T10:03:08;101308.19;;;15.66;100.00
59757;BME280;45631;51.962;5.974;2022-10-10T10:05:38;101297.97;;;15.84;100.00
59757;BME280;45631;51.962;5.974;2022-10-10T10:08:24;101304.06;;;16.07;100.00
59757;BME280;45631;51.962;5.974;2022-10-10T10:10:53;101303.56;;;16.13;100.00
59757;BME280;45631;51.962;5.974;2022-10-10T10:13:27;101307.56;;;16.08;100.00
59757;BME280;45631;51.962;5.974;2022-10-10T10:16:03;101303.69;;;16.12;100.00
59757;BME280;45631;51.962;5.974;2022-10-10T10:18:42;101306.66;;;16.51;99.02
59757;BME280;45631;51.962;5.974;2022-10-10T10:21:15;101302.56;;;16.58;98.39
59757;BME280;45631;51.962;5.974;2022-10-10T10:23:52;101308.88;;;16.99;98.79
59757;BME280;45631;51.962;5.974;2022-10-10T10:26:23;101300.00;;;16.89;95.97
59757;BME280;45631;51.962;5.974;2022-10-10T10:28:55;101293.53;;;17.03;95.01
59757;BME280;45631;51.962;5.974;2022-10-10T10:31:33;101303.63;;;17.09;94.21
59757;BME280;45631;51.962;5.974;2022-10-10T10:34:36;101311.19;;;17.14;95.42
59757;BME280;45631;51.962;5.974;2022-10-10T10:37:12;101309.69;;;17.21;94.39
59757;BME280;45631;51.962;5.974;2022-10-10T10:39:52;101312.88;;;17.46;94.18
59757;BME280;45631;51.962;5.974;2022-10-10T10:42:30;101310.69;;;17.51;93.24
59757;BME280;45631;51.962;5.974;2022-10-10T10:45:14;101310.41;;;17.54;94.68
59757;BME280;45631;51.962;5.974;2022-10-10T10:47:51;101308.56;;;17.54;93.69
59757;BME280;45631;51.962;5.974;2022-10-10T10:50:37;101321.06;;;17.64;93.95
59757;BME280;45631;51.962;5.974;2022-10-10T10:53:14;101320.94;;;17.65;93.11
59757;BME280;45631;51.962;5.974;2022-10-10T10:55:49;101328.88;;;17.55;92.04
59757;BME280;45631;51.962;5.974;2022-10-10T11:01:41;101333.63;;;17.93;94.10
59757;BME280;45631;51.962;5.974;2022-10-10T11:04:35;101344.66;;;18.48;89.69
59757;BME280;45631;51.962;5.974;2022-10-10T11:07:40;101330.47;;;18.87;87.60
59757;BME280;45631;51.962;5.974;2022-10-10T11:10:15;101341.31;;;18.95;87.78
59757;BME280;45631;51.962;5.974;2022-10-10T11:13:00;101335.28;;;19.40;86.88
59757;BME280;45631;51.962;5.974;2022-10-10T11:15:35;101339.16;;;19.56;84.29
59757;BME280;45631;51.962;5.974;2022-10-10T11:18:28;101341.16;;;19.44;85.28
59757;BME280;45631;51.962;5.974;2022-10-10T11:21:01;101334.13;;;19.53;83.77
59757;BME280;45631;51.962;5.974;2022-10-10T11:23:36;101338.59;;;19.90;82.57
59757;BME280;45631;51.962;5.974;2022-10-10T11:26:09;101345.78;;;19.80;81.94
59757;BME280;45631;51.962;5.974;2022-10-10T11:28:43;101347.88;;;19.86;81.12
59757;BME280;45631;51.962;5.974;2022-10-10T11:31:20;101337.78;;;19.80;79.39
59757;BME280;45631;51.962;5.974;2022-10-10T11:33:52;101338.19;;;20.13;76.69
59757;BME280;45631;51.962;5.974;2022-10-10T11:36:25;101341.03;;;20.47;76.32
59757;BME280;45631;51.962;5.974;2022-10-10T11:39:02;101345.31;;;21.02;75.26
59757;BME280;45631;51.962;5.974;2022-10-10T11:41:35;101352.47;;;21.20;73.98
59757;BME280;45631;51.962;5.974;2022-10-10T11:44:09;101349.72;;;20.85;73.50
59757;BME280;45631;51.962;5.974;2022-10-10T11:46:41;101360.81;;;20.72;74.47
59757;BME280;45631;51.962;5.974;2022-10-10T11:49:18;101355.06;;;20.67;74.23
59757;BME280;45631;51.962;5.974;2022-10-10T11:52:02;101353.47;;;20.38;74.53
59757;BME280;45631;51.962;5.974;2022-10-10T11:55:00;101353.69;;;20.45;74.14
59757;BME280;45631;51.962;5.974;2022-10-10T11:57:35;101351.78;;;20.19;76.22
59757;BME280;45631;51.962;5.974;2022-10-10T12:00:08;101343.06;;;20.35;75.85
59757;BME280;45631;51.962;5.974;2022-10-10T12:02:38;101336.81;;;20.44;76.16
59757;BME280;45631;51.962;5.974;2022-10-10T12:05:19;101339.56;;;20.17;75.63
59757;BME280;45631;51.962;5.974;2022-10-10T12:07:59;101342.22;;;20.17;76.09
59757;BME280;45631;51.962;5.974;2022-10-10T12:10:34;101345.72;;;20.17;76.48
59757;BME280;45631;51.962;5.974;2022-10-10T12:13:17;101353.16;;;20.41;77.07
59757;BME280;45631;51.962;5.974;2022-10-10T12:15:51;101356.44;;;20.89;75.36
59757;BME280;45631;51.962;5.974;2022-10-10T12:18:36;101359.88;;;20.82;75.67
59757;BME280;45631;51.962;5.974;2022-10-10T12:21:07;101357.91;;;21.36;73.11
59757;BME280;45631;51.962;5.974;2022-10-10T12:23:37;101356.28;;;21.17;73.14
59757;BME280;45631;51.962;5.974;2022-10-10T12:26:12;101344.78;;;21.77;72.45
59757;BME280;45631;51.962;5.974;2022-10-10T12:29:02;101353.47;;;21.80;70.12
59757;BME280;45631;51.962;5.974;2022-10-10T12:31:35;101344.00;;;21.59;73.18
59757;BME280;45631;51.962;5.974;2022-10-10T12:34:15;101346.13;;;21.21;72.36
59757;BME280;45631;51.962;5.974;2022-10-10T12:36:55;101348.38;;;21.07;74.46
59757;BME280;45631;51.962;5.974;2022-10-10T12:39:35;101357.03;;;21.01;74.21
59757;BME280;45631;51.962;5.974;2022-10-10T12:42:32;101366.59;;;20.86;76.01
59757;BME280;45631;51.962;5.974;2022-10-10T12:45:01;101371.38;;;20.64;75.34
59757;BME280;45631;51.962;5.974;2022-10-10T12:47:41;101373.31;;;20.54;77.14
59757;BME280;45631;51.962;5.974;2022-10-10T12:50:33;101376.31;;;20.23;78.25
59757;BME280;45631;51.962;5.974;2022-10-10T12:53:04;101368.56;;;20.30;77.98
59757;BME280;45631;51.962;5.974;2022-10-10T12:55:40;101365.66;;;20.23;79.59
59757;BME280;45631;51.962;5.974;2022-10-10T12:58:16;101371.78;;;20.05;79.44
59757;BME280;45631;51.962;5.974;2022-10-10T13:00:54;101375.03;;;19.71;81.00
59757;BME280;45631;51.962;5.974;2022-10-10T13:03:27;101387.31;;;19.54;82.85
59757;BME280;45631;51.962;5.974;2022-10-10T13:06:03;101390.66;;;19.66;82.92
59757;BME280;45631;51.962;5.974;2022-10-10T13:08:33;101394.03;;;19.58;84.72
59757;BME280;45631;51.962;5.974;2022-10-10T13:11:06;101389.56;;;19.49;85.78
59757;BME280;45631;51.962;5.974;2022-10-10T13:13:38;101393.69;;;19.34;85.95
59757;BME280;45631;51.962;5.974;2022-10-10T13:16:10;101396.94;;;19.37;88.83
59757;BME280;45631;51.962;5.974;2022-10-10T13:18:41;101391.06;;;19.14;90.39